Time;durP1;ratioP1;P1;durP2;ratioP2;P2;SDS_P1;SDS_P2;PMS_P1;PMS_P2;Temp;Humidity;BMP_temperature;BMP_pressure;BME280_temperature;BME280_humidity;BME280_pressure;Samples;Min_cycle;Max_cycle;Signal;HPM_P1;HPM_P2
2023/11/06 00:00:11;;;;;;;;;;;;;;;;;;4950439;28;19924;-67
2023/11/06 00:02:37;;;;;;;;;;;;;;;;;;4951601;28;19925;-68
2023/11/06 00:05:04;;;;;;;;;;;;;;;;;;4951173;28;19913;-69
2023/11/06 00:07:30;;;;;;;;;;;;;;;;;;4951966;28;19925;-68
2023/11/06 00:09:57;;;;;;;;;;;;;;;;;;4937845;28;19913;-69
2023/11/06 00:12:23;;;;;;;;;;;;;;;;;;4936577;28;19918;-69
2023/11/06 00:14:49;;;;;;;;;;;;;;;;;;4937428;28;19988;-67
2023/11/06 00:17:15;;;;;;;;;;;;;;;;;;4936599;28;20562;-70
2023/11/06 00:19:43;;;;;;;;;;;;;;;;;;4929107;28;20420;-67
2023/11/06 00:22:09;;;;;;;;;;;;;;;;;;4920675;28;20437;-69
2023/11/06 00:24:36;;;;;;;;;;;;;;;;;;4943182;28;19964;-69
2023/11/06 00:27:02;;;;;;;;;;;;;;;;;;4942685;28;19949;-67
2023/11/06 00:29:29;;;;;;;;;;;;;;;;;;4945859;28;20344;-70
2023/11/06 00:31:55;;;;;;;;;;;;;;;;;;4961573;28;19921;-69
2023/11/06 00:34:21;;;;;;;;;;;;;;;;;;4959778;28;20241;-69
2023/11/06 00:36:47;;;;;;;;;;;;;;;;;;4940855;28;19914;-69
2023/11/06 00:39:13;;;;;;;;;;;;;;;;;;4959523;28;20264;-67
2023/11/06 00:41:40;;;;;;;;;;;;;;;;;;4958531;28;19933;-68
2023/11/06 00:44:06;;;;;;;;;;;;;;;;;;4957293;28;19917;-67
2023/11/06 00:46:32;;;;;;;;;;;;;;;;;;4961889;28;20614;-68
2023/11/06 00:48:58;;;;;;;;;;;;;;;;;;4956789;28;19913;-67
2023/11/06 00:51:24;;;;;;;;;;;;;;;;;;4941103;28;20410;-68
2023/11/06 00:53:50;;;;;;;;;;;;;;;;;;4944742;28;20450;-68
2023/11/06 00:56:16;;;;;;;;;;;;;;;;;;4933467;28;20338;-69
2023/11/06 00:58:43;;;;;;;;;;;;;;;;;;4921526;28;19914;-69
2023/11/06 01:01:09;;;;;;;;;;;;;;;;;;4917401;28;19921;-70
2023/11/06 01:03:35;;;;;;;;;;;;;;;;;;4924696;28;20024;-70
2023/11/06 01:06:01;;;;;;;;;;;;;;;;;;4904627;28;20350;-69
2023/11/06 01:08:27;;;;;;;;;;;;;;;;;;4920311;28;20354;-68
2023/11/06 01:10:53;;;;;;;;;;;;;;;;;;4908689;28;20704;-69
2023/11/06 01:13:19;;;;;;;;;;;;;;;;;;4918045;28;19975;-70
2023/11/06 01:15:46;;;;;;;;;;;;;;;;;;4923271;28;20457;-69
2023/11/06 01:18:12;;;;;;;;;;;;;;;;;;4901117;28;19918;-67
2023/11/06 01:20:40;;;;;;;;;;;;;;;;;;4903544;28;20086;-67
2023/11/06 01:23:06;;;;;;;;;;;;;;;;;;4900126;28;20923;-68
2023/11/06 01:25:32;;;;;;;;;;;;;;;;;;4905179;28;20515;-69
2023/11/06 01:27:58;;;;;;;;;;;;;;;;;;4901214;28;19949;-68
2023/11/06 01:30:24;;;;;;;;;;;;;;;;;;4906069;28;19918;-68
2023/11/06 01:32:50;;;;;;;;;;;;;;;;;;4903468;28;20029;-70
2023/11/06 01:35:19;;;;;;;;;;;;;;;;;;4952769;28;19920;-70
2023/11/06 01:37:45;;;;;;;;;;;;;;;;;;4942979;28;19917;-67
2023/11/06 01:40:11;;;;;;;;;;;;;;;;;;4939784;28;20045;-69
2023/11/06 01:42:37;;;;;;;;;;;;;;;;;;4959430;28;19917;-69
2023/11/06 01:45:05;;;;;;;;;;;;;;;;;;4956230;28;20319;-70
2023/11/06 01:47:31;;;;;;;;;;;;;;;;;;4954856;28;20332;-69
2023/11/06 01:49:57;;;;;;;;;;;;;;;;;;4961126;28;19913;-68
2023/11/06 01:52:23;;;;;;;;;;;;;;;;;;4941679;28;20268;-68
2023/11/06 01:54:49;;;;;;;;;;;;;;;;;;4944845;28;19954;-68
2023/11/06 01:57:15;;;;;;;;;;;;;;;;;;4954089;28;19918;-68
2023/11/06 01:59:41;;;;;;;;;;;;;;;;;;4957657;28;19918;-68
2023/11/06 02:02:07;;;;;;;;;;;;;;;;;;4940919;28;19973;-68
2023/11/06 02:04:33;;;;;;;;;;;;;;;;;;4958089;28;19924;-68
2023/11/06 02:06:59;;;;;;;;;;;;;;;;;;4954266;28;20329;-69
2023/11/06 02:09:25;;;;;;;;;;;;;;;;;;4942552;28;19968;-68
2023/11/06 02:11:51;;;;;;;;;;;;;;;;;;4956384;28;19925;-68
2023/11/06 02:14:17;;;;;;;;;;;;;;;;;;4941579;28;21046;-68
2023/11/06 02:16:44;;;;;;;;;;;;;;;;;;4946879;28;20268;-68
2023/11/06 02:19:09;;;;;;;;;;;;;;;;;;4961210;28;20343;-68
2023/11/06 02:21:35;;;;;;;;;;;;;;;;;;4943229;28;20334;-67
2023/11/06 02:24:02;;;;;;;;;;;;;;;;;;4944443;28;20378;-68
2023/11/06 02:26:29;;;;;;;;;;;;;;;;;;4947948;28;19934;-68
2023/11/06 02:28:55;;;;;;;;;;;;;;;;;;4960108;28;19921;-68
2023/11/06 02:31:21;;;;;;;;;;;;;;;;;;4963119;28;20004;-68
2023/11/06 02:33:47;;;;;;;;;;;;;;;;;;4963601;28;19984;-68
2023/11/06 02:36:13;;;;;;;;;;;;;;;;;;4961822;28;20348;-69
2023/11/06 02:38:39;;;;;;;;;;;;;;;;;;4961551;28;19920;-68
2023/11/06 02:41:05;;;;;;;;;;;;;;;;;;4958747;28;19917;-68
2023/11/06 02:43:31;;;;;;;;;;;;;;;;;;4960719;28;19914;-69
2023/11/06 02:45:57;;;;;;;;;;;;;;;;;;4940812;28;20517;-69
2023/11/06 02:48:23;;;;;;;;;;;;;;;;;;4947174;28;19910;-68
2023/11/06 02:50:52;;;;;;;;;;;;;;;;;;4944658;28;20783;-69
2023/11/06 02:53:18;;;;;;;;;;;;;;;;;;4956005;28;20369;-69
2023/11/06 02:55:44;;;;;;;;;;;;;;;;;;4959758;28;20337;-66
2023/11/06 02:58:10;;;;;;;;;;;;;;;;;;4956855;28;20411;-66
2023/11/06 03:00:37;;;;;;;;;;;;;;;;;;4959120;28;19925;-67
2023/11/06 03:03:03;;;;;;;;;;;;;;;;;;4942859;28;20005;-67
2023/11/06 03:05:31;;;;;;;;;;;;;;;;;;4962669;28;20032;-67
2023/11/06 03:07:57;;;;;;;;;;;;;;;;;;4961272;28;19918;-67
2023/11/06 03:10:23;;;;;;;;;;;;;;;;;;4941837;28;20700;-67
2023/11/06 03:12:49;;;;;;;;;;;;;;;;;;4960792;28;19913;-67
2023/11/06 03:15:15;;;;;;;;;;;;;;;;;;4958944;28;20287;-69
2023/11/06 03:17:41;;;;;;;;;;;;;;;;;;4961425;28;19918;-69
2023/11/06 03:20:10;;;;;;;;;;;;;;;;;;4957151;28;19914;-68
2023/11/06 03:22:36;;;;;;;;;;;;;;;;;;4961813;28;19918;-68
2023/11/06 03:25:02;;;;;;;;;;;;;;;;;;4940179;28;20474;-68
2023/11/06 03:27:28;;;;;;;;;;;;;;;;;;4943820;28;20040;-68
2023/11/06 03:29:54;;;;;;;;;;;;;;;;;;4964533;28;20261;-69
2023/11/06 03:32:20;;;;;;;;;;;;;;;;;;4959359;28;20336;-68
2023/11/06 03:34:46;;;;;;;;;;;;;;;;;;4962734;28;20382;-69
2023/11/06 03:37:12;;;;;;;;;;;;;;;;;;4956137;28;19914;-68
2023/11/06 03:39:41;;;;;;;;;;;;;;;;;;4958952;28;20051;-69
2023/11/06 03:42:07;;;;;;;;;;;;;;;;;;4939364;28;20032;-68
2023/11/06 03:44:33;;;;;;;;;;;;;;;;;;4962565;28;19936;-69
2023/11/06 03:46:59;;;;;;;;;;;;;;;;;;4958720;28;19917;-68
2023/11/06 03:49:25;;;;;;;;;;;;;;;;;;4943219;28;19914;-69
2023/11/06 03:51:51;;;;;;;;;;;;;;;;;;4957385;28;20612;-69
2023/11/06 03:54:17;;;;;;;;;;;;;;;;;;4955369;28;19922;-69
2023/11/06 03:56:43;;;;;;;;;;;;;;;;;;4961809;28;19921;-68
2023/11/06 03:59:09;;;;;;;;;;;;;;;;;;4956363;28;20406;-68
2023/11/06 04:01:35;;;;;;;;;;;;;;;;;;4960215;28;20770;-69
2023/11/06 04:04:01;;;;;;;;;;;;;;;;;;4956780;28;20017;-69
2023/11/06 04:06:27;;;;;;;;;;;;;;;;;;4944271;28;20211;-67
2023/11/06 04:08:53;;;;;;;;;;;;;;;;;;4940788;28;20396;-67
2023/11/06 04:11:19;;;;;;;;;;;;;;;;;;4959155;28;20158;-68
2023/11/06 04:13:45;;;;;;;;;;;;;;;;;;4944017;28;19921;-67
2023/11/06 04:16:11;;;;;;;;;;;;;;;;;;4957215;28;20441;-67
2023/11/06 04:18:37;;;;;;;;;;;;;;;;;;4958879;28;19920;-67
2023/11/06 04:21:03;;;;;;;;;;;;;;;;;;4940307;28;20129;-67
2023/11/06 04:23:29;;;;;;;;;;;;;;;;;;4957446;28;20067;-67
2023/11/06 04:25:55;;;;;;;;;;;;;;;;;;4942883;28;20321;-67
2023/11/06 04:28:21;;;;;;;;;;;;;;;;;;4955355;28;19914;-67
2023/11/06 04:30:47;;;;;;;;;;;;;;;;;;4959842;28;20533;-67
2023/11/06 04:33:13;;;;;;;;;;;;;;;;;;4956134;28;19914;-68
2023/11/06 04:35:38;;;;;;;;;;;;;;;;;;4954206;28;20262;-67
2023/11/06 04:38:05;;;;;;;;;;;;;;;;;;4956876;28;20055;-67
2023/11/06 04:40:31;;;;;;;;;;;;;;;;;;4958587;28;19913;-71
2023/11/06 04:42:57;;;;;;;;;;;;;;;;;;4958214;28;20463;-67
2023/11/06 04:45:23;;;;;;;;;;;;;;;;;;4943054;28;19934;-68
2023/11/06 04:47:49;;;;;;;;;;;;;;;;;;4943129;28;21454;-68
2023/11/06 04:50:15;;;;;;;;;;;;;;;;;;4953802;28;19920;-68
2023/11/06 04:52:41;;;;;;;;;;;;;;;;;;4958703;28;20363;-69
2023/11/06 04:55:07;;;;;;;;;;;;;;;;;;4956612;28;20020;-70
2023/11/06 04:57:33;;;;;;;;;;;;;;;;;;4954187;28;19914;-68
2023/11/06 04:59:59;;;;;;;;;;;;;;;;;;4955598;28;20423;-67
2023/11/06 05:02:25;;;;;;;;;;;;;;;;;;4956854;28;19917;-69
2023/11/06 05:04:51;;;;;;;;;;;;;;;;;;4945396;28;20354;-68
2023/11/06 05:07:17;;;;;;;;;;;;;;;;;;4939870;28;21708;-68
2023/11/06 05:09:43;;;;;;;;;;;;;;;;;;4944981;28;19914;-68
2023/11/06 05:12:10;;;;;;;;;;;;;;;;;;4941191;28;19953;-68
2023/11/06 05:14:36;;;;;;;;;;;;;;;;;;4960182;28;20363;-68
2023/11/06 05:17:01;;;;;;;;;;;;;;;;;;4955873;28;20087;-69
2023/11/06 05:19:28;;;;;;;;;;;;;;;;;;4960503;28;19914;-68
2023/11/06 05:21:54;;;;;;;;;;;;;;;;;;4955781;28;20766;-67
2023/11/06 05:24:21;;;;;;;;;;;;;;;;;;4955352;28;19926;-67
2023/11/06 05:26:47;;;;;;;;;;;;;;;;;;4962364;28;19916;-68
2023/11/06 05:29:13;;;;;;;;;;;;;;;;;;4954766;28;19914;-69
2023/11/06 05:31:41;;;;;;;;;;;;;;;;;;4939339;28;20338;-68
2023/11/06 05:34:07;;;;;;;;;;;;;;;;;;4956236;28;19920;-68
2023/11/06 05:36:33;;;;;;;;;;;;;;;;;;4958350;28;19914;-68
2023/11/06 05:38:59;;;;;;;;;;;;;;;;;;4939211;28;19917;-67
2023/11/06 05:41:25;;;;;;;;;;;;;;;;;;4959258;28;19929;-67
2023/11/06 05:43:51;;;;;;;;;;;;;;;;;;4956657;28;19917;-67
2023/11/06 05:46:17;;;;;;;;;;;;;;;;;;4957256;28;22176;-68
2023/11/06 05:48:43;;;;;;;;;;;;;;;;;;4957758;28;20190;-68
2023/11/06 05:51:09;;;;;;;;;;;;;;;;;;4955927;28;20308;-68
2023/11/06 05:53:35;;;;;;;;;;;;;;;;;;4940730;28;19921;-68
2023/11/06 05:56:01;;;;;;;;;;;;;;;;;;4955181;28;19917;-68
2023/11/06 05:58:27;;;;;;;;;;;;;;;;;;4958106;28;19917;-68
2023/11/06 06:00:53;;;;;;;;;;;;;;;;;;4957303;28;19914;-69
2023/11/06 06:03:20;;;;;;;;;;;;;;;;;;4958500;28;20880;-68
2023/11/06 06:05:46;;;;;;;;;;;;;;;;;;4943532;28;20259;-69
2023/11/06 06:08:12;;;;;;;;;;;;;;;;;;4956209;28;19918;-69
2023/11/06 06:10:38;;;;;;;;;;;;;;;;;;4941292;28;19957;-69
2023/11/06 06:13:04;;;;;;;;;;;;;;;;;;4954222;28;20531;-69
2023/11/06 06:15:30;;;;;;;;;;;;;;;;;;4958500;28;19988;-69
2023/11/06 06:17:57;;;;;;;;;;;;;;;;;;4942898;28;19913;-69
2023/11/06 06:20:23;;;;;;;;;;;;;;;;;;4942741;28;19913;-68
2023/11/06 06:22:50;;;;;;;;;;;;;;;;;;4959465;28;19968;-69
2023/11/06 06:25:16;;;;;;;;;;;;;;;;;;4956830;28;19980;-68
2023/11/06 06:27:42;;;;;;;;;;;;;;;;;;4956619;28;20013;-68
2023/11/06 06:30:09;;;;;;;;;;;;;;;;;;4956576;28;19917;-68
2023/11/06 06:32:35;;;;;;;;;;;;;;;;;;4960876;28;19914;-70
2023/11/06 06:35:04;;;;;;;;;;;;;;;;;;4954368;28;20264;-68
2023/11/06 06:37:30;;;;;;;;;;;;;;;;;;4957819;28;19920;-68
2023/11/06 06:39:56;;;;;;;;;;;;;;;;;;4962346;28;19917;-68
2023/11/06 06:42:22;;;;;;;;;;;;;;;;;;4952704;28;19922;-68
2023/11/06 06:44:48;;;;;;;;;;;;;;;;;;4959398;28;20407;-68
2023/11/06 06:47:14;;;;;;;;;;;;;;;;;;4953987;28;20216;-69
2023/11/06 06:49:40;;;;;;;;;;;;;;;;;;4943042;28;20296;-68
2023/11/06 06:52:06;;;;;;;;;;;;;;;;;;4938832;28;20048;-69
2023/11/06 06:54:32;;;;;;;;;;;;;;;;;;4958673;28;20222;-67
2023/11/06 06:56:58;;;;;;;;;;;;;;;;;;4956233;28;19914;-68
2023/11/06 06:59:26;;;;;;;;;;;;;;;;;;4962867;28;19973;-68
2023/11/06 07:01:52;;;;;;;;;;;;;;;;;;4961094;28;19922;-69
2023/11/06 07:04:19;;;;;;;;;;;;;;;;;;4958010;28;20512;-68
2023/11/06 07:06:45;;;;;;;;;;;;;;;;;;4961317;28;19914;-68
2023/11/06 07:09:11;;;;;;;;;;;;;;;;;;4956802;28;19920;-67
2023/11/06 07:11:37;;;;;;;;;;;;;;;;;;4958781;28;20004;-68
2023/11/06 07:14:03;;;;;;;;;;;;;;;;;;4941540;28;19921;-68
2023/11/06 07:16:29;;;;;;;;;;;;;;;;;;4944925;28;20570;-68
2023/11/06 07:18:55;;;;;;;;;;;;;;;;;;4944665;28;19917;-69
2023/11/06 07:21:21;;;;;;;;;;;;;;;;;;4959362;28;19925;-68
2023/11/06 07:23:47;;;;;;;;;;;;;;;;;;4962431;28;19922;-69
2023/11/06 07:26:14;;;;;;;;;;;;;;;;;;4943545;28;19917;-69
2023/11/06 07:28:40;;;;;;;;;;;;;;;;;;4944548;28;19960;-69
2023/11/06 07:31:05;;;;;;;;;;;;;;;;;;4956318;28;19914;-69
2023/11/06 07:33:31;;;;;;;;;;;;;;;;;;4960752;28;20028;-68
2023/11/06 07:35:57;;;;;;;;;;;;;;;;;;4960084;28;19921;-68
2023/11/06 07:38:24;;;;;;;;;;;;;;;;;;4958897;28;19940;-68
2023/11/06 07:40:50;;;;;;;;;;;;;;;;;;4962338;28;20049;-68
2023/11/06 07:43:16;;;;;;;;;;;;;;;;;;4957837;28;19917;-69
2023/11/06 07:45:42;;;;;;;;;;;;;;;;;;4945604;28;19940;-69
2023/11/06 07:48:08;;;;;;;;;;;;;;;;;;4939302;28;20335;-69
2023/11/06 07:50:34;;;;;;;;;;;;;;;;;;4941942;28;19925;-69
2023/11/06 07:53:00;;;;;;;;;;;;;;;;;;4956802;28;19922;-69
2023/11/06 07:55:26;;;;;;;;;;;;;;;;;;4944589;28;19925;-68
2023/11/06 07:57:52;;;;;;;;;;;;;;;;;;4957572;28;19914;-68
2023/11/06 08:00:18;;;;;;;;;;;;;;;;;;4953606;28;19917;-69
2023/11/06 08:02:44;;;;;;;;;;;;;;;;;;4963818;28;20359;-68
2023/11/06 08:05:11;;;;;;;;;;;;;;;;;;4936839;28;20435;-68
2023/11/06 08:07:38;;;;;;;;;;;;;;;;;;4959651;28;19920;-68
2023/11/06 08:10:04;;;;;;;;;;;;;;;;;;4939897;28;19918;-69
2023/11/06 08:12:31;;;;;;;;;;;;;;;;;;4956039;28;20020;-68
2023/11/06 08:14:57;;;;;;;;;;;;;;;;;;4945058;28;19918;-69
2023/11/06 08:22:35;;;;;;;;;;;;;;;;;;5132261;23;19956;-74
2023/11/06 08:25:01;;;;;;;;;;;;;;;;;;4972592;28;19913;-73
2023/11/06 08:27:27;;;;;;;;;;;;;;;;;;4977502;28;19925;-73
2023/11/06 08:29:54;;;;;;;;;;;;;;;;;;4978875;28;20348;-73
2023/11/06 08:32:20;;;;;;;;;;;;;;;;;;4959386;28;20242;-74
2023/11/06 08:34:47;;;;;;;;;;;;;;;;;;4962893;28;19913;-75
2023/11/06 08:37:14;;;;;;;;;;;;;;;;;;4977713;28;19914;-74
2023/11/06 08:39:40;;;;;;;;;;;;;;;;;;4981702;28;19914;-74
2023/11/06 08:42:06;;;;;;;;;;;;;;;;;;4975146;28;20306;-73
2023/11/06 08:44:32;;;;;;;;;;;;;;;;;;4981161;28;20253;-74
2023/11/06 08:46:58;;;;;;;;;;;;;;;;;;4978592;28;20386;-74
2023/11/06 08:49:24;;;;;;;;;;;;;;;;;;4961452;28;20346;-72
2023/11/06 08:51:50;;;;;;;;;;;;;;;;;;4978960;28;19921;-72
2023/11/06 08:54:16;;;;;;;;;;;;;;;;;;4976583;28;19918;-73
2023/11/06 08:56:42;;;;;;;;;;;;;;;;;;4962982;28;20492;-73
2023/11/06 08:59:08;;;;;;;;;;;;;;;;;;4978796;28;19913;-74
2023/11/06 09:01:34;;;;;;;;;;;;;;;;;;4957354;28;19925;-74
2023/11/06 09:04:00;;;;;;;;;;;;;;;;;;4974129;28;20071;-72
2023/11/06 09:06:27;;;;;;;;;;;;;;;;;;4964118;28;19940;-74
2023/11/06 09:08:52;;;;;;;;;;;;;;;;;;4961127;28;20568;-75
2023/11/06 09:11:19;;;;;;;;;;;;;;;;;;4961437;28;19941;-75
2023/11/06 09:13:45;;;;;;;;;;;;;;;;;;4979978;28;19910;-72
2023/11/06 09:16:11;;;;;;;;;;;;;;;;;;4958419;28;19936;-74
2023/11/06 09:18:39;;;;;;;;;;;;;;;;;;4979310;28;20201;-72
2023/11/06 09:21:06;;;;;;;;;;;;;;;;;;4964998;28;19921;-74
2023/11/06 09:23:32;;;;;;;;;;;;;;;;;;4961468;28;19917;-74
2023/11/06 09:25:58;;;;;;;;;;;;;;;;;;4961661;28;20623;-75
2023/11/06 09:28:25;;;;;;;;;;;;;;;;;;4963269;28;19914;-75
2023/11/06 09:30:50;;;;;;;;;;;;;;;;;;4961684;28;20249;-73
2023/11/06 09:33:16;;;;;;;;;;;;;;;;;;4959294;28;20716;-73
2023/11/06 09:35:42;;;;;;;;;;;;;;;;;;4945127;28;19948;-74
2023/11/06 09:38:08;;;;;;;;;;;;;;;;;;4956134;28;20000;-73
2023/11/06 09:40:35;;;;;;;;;;;;;;;;;;4942722;28;19921;-73
2023/11/06 09:43:01;;;;;;;;;;;;;;;;;;4939644;28;20568;-74
2023/11/06 09:45:27;;;;;;;;;;;;;;;;;;4940068;28;19957;-73
2023/11/06 09:47:53;;;;;;;;;;;;;;;;;;4959701;28;20242;-71
2023/11/06 09:50:19;;;;;;;;;;;;;;;;;;4959706;28;20514;-74
2023/11/06 09:52:45;;;;;;;;;;;;;;;;;;4962329;28;19910;-74
2023/11/06 09:55:13;;;;;;;;;;;;;;;;;;4961827;28;20380;-72
2023/11/06 09:57:39;;;;;;;;;;;;;;;;;;4958934;28;19928;-72
2023/11/06 10:00:08;;;;;;;;;;;;;;;;;;4960228;28;19910;-74
2023/11/06 10:02:34;;;;;;;;;;;;;;;;;;4964047;28;20244;-73
2023/11/06 10:05:00;;;;;;;;;;;;;;;;;;4945551;28;20229;-72
2023/11/06 10:07:28;;;;;;;;;;;;;;;;;;4944816;28;19913;-74
2023/11/06 10:09:54;;;;;;;;;;;;;;;;;;4965874;28;19971;-74
2023/11/06 10:12:20;;;;;;;;;;;;;;;;;;4960970;28;20391;-73
2023/11/06 10:14:46;;;;;;;;;;;;;;;;;;4963800;28;19922;-73
2023/11/06 10:17:12;;;;;;;;;;;;;;;;;;4960620;28;19913;-73
2023/11/06 10:19:38;;;;;;;;;;;;;;;;;;4949796;28;19997;-73
2023/11/06 10:22:04;;;;;;;;;;;;;;;;;;4947542;28;20472;-72
2023/11/06 10:24:31;;;;;;;;;;;;;;;;;;4962099;28;19964;-72
2023/11/06 10:26:57;;;;;;;;;;;;;;;;;;4944051;28;20437;-73
2023/11/06 10:29:24;;;;;;;;;;;;;;;;;;4944766;28;19920;-73
2023/11/06 10:31:50;;;;;;;;;;;;;;;;;;4962402;28;20075;-71
2023/11/06 10:34:16;;;;;;;;;;;;;;;;;;4959262;28;19917;-72
2023/11/06 10:36:42;;;;;;;;;;;;;;;;;;4945812;28;19921;-72
2023/11/06 10:39:12;;;;;;;;;;;;;;;;;;4960043;28;19913;-74
2023/11/06 10:41:38;;;;;;;;;;;;;;;;;;4943324;28;20265;-74
2023/11/06 10:44:04;;;;;;;;;;;;;;;;;;4959707;28;19937;-73
2023/11/06 10:46:30;;;;;;;;;;;;;;;;;;4947010;28;20434;-73
2023/11/06 10:48:56;;;;;;;;;;;;;;;;;;4964762;28;19918;-72
2023/11/06 10:51:22;;;;;;;;;;;;;;;;;;4943249;28;20394;-73
2023/11/06 10:53:49;;;;;;;;;;;;;;;;;;4963801;28;19916;-72
2023/11/06 10:56:15;;;;;;;;;;;;;;;;;;4944298;28;20055;-73
2023/11/06 10:58:41;;;;;;;;;;;;;;;;;;4966984;28;20625;-73
2023/11/06 11:01:07;;;;;;;;;;;;;;;;;;4963533;28;19918;-72
2023/11/06 11:03:33;;;;;;;;;;;;;;;;;;4964847;28;19993;-74
2023/11/06 11:05:59;;;;;;;;;;;;;;;;;;4961274;28;19922;-72
2023/11/06 11:08:26;;;;;;;;;;;;;;;;;;4963880;28;19957;-73
2023/11/06 11:10:51;;;;;;;;;;;;;;;;;;4963546;28;20961;-73
2023/11/06 11:13:18;;;;;;;;;;;;;;;;;;4959977;28;20783;-73
2023/11/06 11:15:44;;;;;;;;;;;;;;;;;;4945472;28;19920;-73
2023/11/06 11:18:10;;;;;;;;;;;;;;;;;;4961123;28;20333;-73
2023/11/06 11:20:36;;;;;;;;;;;;;;;;;;4918419;28;1260624;-73
2023/11/06 11:23:03;;;;;;;;;;;;;;;;;;4961246;28;20014;-73
2023/11/06 11:25:29;;;;;;;;;;;;;;;;;;4965660;28;21228;-73
2023/11/06 11:27:55;;;;;;;;;;;;;;;;;;4959317;28;20132;-73
2023/11/06 11:30:21;;;;;;;;;;;;;;;;;;4959392;28;19917;-73
2023/11/06 11:32:47;;;;;;;;;;;;;;;;;;4947305;28;19913;-73
2023/11/06 11:35:14;;;;;;;;;;;;;;;;;;4960495;28;19921;-72
2023/11/06 11:37:40;;;;;;;;;;;;;;;;;;4941425;28;20008;-72
2023/11/06 11:40:08;;;;;;;;;;;;;;;;;;4956178;28;19917;-71
2023/11/06 11:42:34;;;;;;;;;;;;;;;;;;4958645;28;20892;-74
2023/11/06 11:45:00;;;;;;;;;;;;;;;;;;4956249;28;19960;-72
2023/11/06 11:47:26;;;;;;;;;;;;;;;;;;4943168;28;19918;-72
2023/11/06 11:49:52;;;;;;;;;;;;;;;;;;4959489;28;19952;-73
2023/11/06 11:52:18;;;;;;;;;;;;;;;;;;4958479;28;23621;-73
2023/11/06 11:54:45;;;;;;;;;;;;;;;;;;4961478;28;20150;-73
2023/11/06 11:57:11;;;;;;;;;;;;;;;;;;4958540;28;19914;-74
2023/11/06 11:59:37;;;;;;;;;;;;;;;;;;4958187;28;19976;-73
2023/11/06 12:02:05;;;;;;;;;;;;;;;;;;4958284;28;20445;-73
2023/11/06 12:04:31;;;;;;;;;;;;;;;;;;4961549;28;20202;-73
2023/11/06 12:06:56;;;;;;;;;;;;;;;;;;4960480;28;20393;-71
2023/11/06 12:09:22;;;;;;;;;;;;;;;;;;4957512;28;20357;-74
2023/11/06 12:11:48;;;;;;;;;;;;;;;;;;4957724;28;19936;-71
2023/11/06 12:14:15;;;;;;;;;;;;;;;;;;4956170;28;20048;-73
2023/11/06 12:16:40;;;;;;;;;;;;;;;;;;4959385;28;19948;-72
2023/11/06 12:19:08;;;;;;;;;;;;;;;;;;4953535;28;19917;-73
2023/11/06 12:21:34;;;;;;;;;;;;;;;;;;4937580;28;20308;-72
2023/11/06 12:24:00;;;;;;;;;;;;;;;;;;4955063;28;19924;-73
2023/11/06 12:26:26;;;;;;;;;;;;;;;;;;4959201;28;20538;-72
2023/11/06 12:28:52;;;;;;;;;;;;;;;;;;4938432;28;19917;-73
2023/11/06 12:31:23;;;;;;;;;;;;;;;;;;4938102;28;19918;-72
2023/11/06 12:33:49;;;;;;;;;;;;;;;;;;4960567;28;19917;-74
2023/11/06 12:36:15;;;;;;;;;;;;;;;;;;4957165;28;20295;-72
2023/11/06 12:38:42;;;;;;;;;;;;;;;;;;4955474;28;19921;-73
2023/11/06 12:41:08;;;;;;;;;;;;;;;;;;4957135;28;19941;-72
2023/11/06 12:43:34;;;;;;;;;;;;;;;;;;4959475;28;19948;-73
2023/11/06 12:46:01;;;;;;;;;;;;;;;;;;4957735;28;20166;-73
2023/11/06 12:48:28;;;;;;;;;;;;;;;;;;4960220;28;20387;-73
2023/11/06 12:50:54;;;;;;;;;;;;;;;;;;4958329;28;19936;-72
2023/11/06 12:53:20;;;;;;;;;;;;;;;;;;4957145;28;19928;-72
2023/11/06 12:55:46;;;;;;;;;;;;;;;;;;4941341;28;19918;-72
2023/11/06 12:58:12;;;;;;;;;;;;;;;;;;4957561;28;19944;-74
2023/11/06 13:00:41;;;;;;;;;;;;;;;;;;4937848;28;20216;-72
2023/11/06 13:03:08;;;;;;;;;;;;;;;;;;4938584;28;19925;-72
2023/11/06 13:05:34;;;;;;;;;;;;;;;;;;4956220;28;20020;-73
2023/11/06 13:08:01;;;;;;;;;;;;;;;;;;4952569;28;20285;-72
2023/11/06 13:10:29;;;;;;;;;;;;;;;;;;4955508;28;20203;-72
2023/11/06 13:12:57;;;;;;;;;;;;;;;;;;4955600;28;19913;-72
2023/11/06 13:15:23;;;;;;;;;;;;;;;;;;4955277;28;19922;-72
2023/11/06 13:17:52;;;;;;;;;;;;;;;;;;4959137;28;19920;-72
2023/11/06 13:20:25;;;;;;;;;;;;;;;;;;4954837;28;21064;-72
2023/11/06 13:22:50;;;;;;;;;;;;;;;;;;4940217;28;20682;-73
2023/11/06 13:25:16;;;;;;;;;;;;;;;;;;4937347;28;20200;-74
2023/11/06 13:27:42;;;;;;;;;;;;;;;;;;4955418;28;19910;-73
2023/11/06 13:30:09;;;;;;;;;;;;;;;;;;4954487;28;19976;-74
2023/11/06 13:32:35;;;;;;;;;;;;;;;;;;4956367;28;19968;-72
2023/11/06 13:35:01;;;;;;;;;;;;;;;;;;4937146;28;20662;-72
2023/11/06 13:37:28;;;;;;;;;;;;;;;;;;4955963;28;19914;-72
2023/11/06 13:39:56;;;;;;;;;;;;;;;;;;4958947;28;19917;-73
2023/11/06 13:42:22;;;;;;;;;;;;;;;;;;4952268;28;20222;-73
2023/11/06 13:44:48;;;;;;;;;;;;;;;;;;4955176;28;19913;-73
2023/11/06 13:47:14;;;;;;;;;;;;;;;;;;4955104;28;20726;-72
2023/11/06 13:49:40;;;;;;;;;;;;;;;;;;4956469;28;19924;-73
2023/11/06 13:52:23;;;;;;;;;;;;;;;;;;4956432;28;20274;-67
2023/11/06 13:54:49;;;;;;;;;;;;;;;;;;4957535;28;20017;-73
2023/11/06 13:57:17;;;;;;;;;;;;;;;;;;4936900;28;19921;-75
2023/11/06 13:59:43;;;;;;;;;;;;;;;;;;4938821;28;19994;-72
2023/11/06 14:02:11;;;;;;;;;;;;;;;;;;4955422;28;19929;-73
2023/11/06 14:04:40;;;;;;;;;;;;;;;;;;4938581;28;19920;-74
2023/11/06 14:07:12;;;;;;;;;;;;;;;;;;4950905;28;20015;-73
2023/11/06 14:09:44;;;;;;;;;;;;;;;;;;4956119;28;19936;-74
2023/11/06 14:12:11;;;;;;;;;;;;;;;;;;4954078;28;19920;-73
2023/11/06 14:14:37;;;;;;;;;;;;;;;;;;4959184;28;19913;-73
2023/11/06 14:17:04;;;;;;;;;;;;;;;;;;4938155;28;20410;-72
2023/11/06 14:19:30;;;;;;;;;;;;;;;;;;4959834;28;20014;-73
2023/11/06 14:21:56;;;;;;;;;;;;;;;;;;4958187;28;20398;-72
2023/11/06 14:24:22;;;;;;;;;;;;;;;;;;4933827;28;19917;-73
2023/11/06 14:26:48;;;;;;;;;;;;;;;;;;4958984;28;20464;-73
2023/11/06 14:29:15;;;;;;;;;;;;;;;;;;4938947;28;20244;-71
2023/11/06 14:31:41;;;;;;;;;;;;;;;;;;4959428;28;19914;-72
2023/11/06 14:34:07;;;;;;;;;;;;;;;;;;4956261;28;19918;-72
2023/11/06 14:36:33;;;;;;;;;;;;;;;;;;4958836;28;19945;-74
2023/11/06 14:38:59;;;;;;;;;;;;;;;;;;4954897;28;19921;-72
2023/11/06 14:41:26;;;;;;;;;;;;;;;;;;4941170;28;20425;-72
2023/11/06 14:43:54;;;;;;;;;;;;;;;;;;4959020;28;19914;-73
2023/11/06 14:46:20;;;;;;;;;;;;;;;;;;4936975;28;20222;-72
2023/11/06 14:48:46;;;;;;;;;;;;;;;;;;4938818;28;20212;-72
2023/11/06 14:51:12;;;;;;;;;;;;;;;;;;4933668;28;19990;-74
2023/11/06 14:53:39;;;;;;;;;;;;;;;;;;4957129;28;20466;-72
2023/11/06 14:56:11;;;;;;;;;;;;;;;;;;4952929;28;20020;-72
2023/11/06 14:58:37;;;;;;;;;;;;;;;;;;4956387;28;19932;-73
2023/11/06 15:01:03;;;;;;;;;;;;;;;;;;4952473;28;19918;-72
2023/11/06 15:03:29;;;;;;;;;;;;;;;;;;4958309;28;20339;-74
2023/11/06 15:05:59;;;;;;;;;;;;;;;;;;4958192;28;19920;-74
2023/11/06 15:08:25;;;;;;;;;;;;;;;;;;4955915;28;19920;-73
2023/11/06 15:10:51;;;;;;;;;;;;;;;;;;4955054;28;19918;-73
2023/11/06 15:13:17;;;;;;;;;;;;;;;;;;4937321;28;19922;-72
2023/11/06 15:15:43;;;;;;;;;;;;;;;;;;4937951;28;20067;-72
2023/11/06 15:18:09;;;;;;;;;;;;;;;;;;4935664;28;19969;-72
2023/11/06 15:20:35;;;;;;;;;;;;;;;;;;4957220;28;20032;-74
2023/11/06 15:23:01;;;;;;;;;;;;;;;;;;4937805;28;20276;-71
2023/11/06 15:25:28;;;;;;;;;;;;;;;;;;4957528;28;20434;-74
2023/11/06 15:27:58;;;;;;;;;;;;;;;;;;4959606;28;20522;-76
2023/11/06 15:30:24;;;;;;;;;;;;;;;;;;4956930;28;20298;-72
2023/11/06 15:32:51;;;;;;;;;;;;;;;;;;4959163;28;20550;-74
2023/11/06 15:35:17;;;;;;;;;;;;;;;;;;4956969;28;19910;-74
2023/11/06 15:37:43;;;;;;;;;;;;;;;;;;4959292;28;20314;-75
2023/11/06 15:40:11;;;;;;;;;;;;;;;;;;4955407;28;20008;-73
2023/11/06 15:42:38;;;;;;;;;;;;;;;;;;4958367;28;19921;-73
2023/11/06 15:45:04;;;;;;;;;;;;;;;;;;4958450;28;19914;-73
2023/11/06 15:47:30;;;;;;;;;;;;;;;;;;4958576;28;19913;-73
2023/11/06 15:49:56;;;;;;;;;;;;;;;;;;4957578;28;20492;-72
2023/11/06 15:52:22;;;;;;;;;;;;;;;;;;4957306;28;19952;-72
2023/11/06 15:54:48;;;;;;;;;;;;;;;;;;4959033;28;20464;-74
2023/11/06 15:57:14;;;;;;;;;;;;;;;;;;4941178;28;19988;-72
2023/11/06 15:59:40;;;;;;;;;;;;;;;;;;4959686;28;19921;-73
2023/11/06 16:02:06;;;;;;;;;;;;;;;;;;4957879;28;19918;-74
2023/11/06 16:04:32;;;;;;;;;;;;;;;;;;4958891;28;20290;-74
2023/11/06 16:07:01;;;;;;;;;;;;;;;;;;4943332;28;19914;-72
2023/11/06 16:09:27;;;;;;;;;;;;;;;;;;4958377;28;19925;-73
2023/11/06 16:11:53;;;;;;;;;;;;;;;;;;4960387;28;20265;-74
2023/11/06 16:14:20;;;;;;;;;;;;;;;;;;4938550;28;20606;-74
2023/11/06 16:16:46;;;;;;;;;;;;;;;;;;4940289;28;20352;-74
2023/11/06 16:19:13;;;;;;;;;;;;;;;;;;4954756;28;19917;-72
2023/11/06 16:21:39;;;;;;;;;;;;;;;;;;4959661;28;20407;-74
2023/11/06 16:24:08;;;;;;;;;;;;;;;;;;4956306;28;19944;-72
2023/11/06 16:26:35;;;;;;;;;;;;;;;;;;4959610;28;20655;-73
2023/11/06 16:29:06;;;;;;;;;;;;;;;;;;4956693;28;19953;-73
2023/11/06 16:31:32;;;;;;;;;;;;;;;;;;4960941;28;20486;-74
2023/11/06 16:33:58;;;;;;;;;;;;;;;;;;4943087;28;19930;-74
2023/11/06 16:36:24;;;;;;;;;;;;;;;;;;4956387;28;20470;-73
2023/11/06 16:38:50;;;;;;;;;;;;;;;;;;4941584;28;20063;-73
2023/11/06 16:41:16;;;;;;;;;;;;;;;;;;4958943;28;19914;-72
2023/11/06 16:43:42;;;;;;;;;;;;;;;;;;4962644;28;20068;-74